Time;durP1;ratioP1;P1;durP2;ratioP2;P2;SDS_P1;SDS_P2;PMS_P1;PMS_P2;Temp;Humidity;BMP_temperature;BMP_pressure;BME280_temperature;BME280_humidity;BME280_pressure;Samples;Min_cycle;Max_cycle;Signal;HPM_P1;HPM_P2
2022/08/18 00:02:24;;;;;;;24.10;14.82;;;16.20;99.90;;;;;;4969279;28;20054;-57
2022/08/18 00:04:51;;;;;;;21.83;14.38;;;16.20;99.90;;;;;;4963697;28;20033;-57
2022/08/18 00:07:20;;;;;;;21.70;15.15;;;16.20;99.90;;;;;;4965978;28;20456;-56
2022/08/18 00:09:46;;;;;;;21.02;14.30;;;16.20;99.90;;;;;;4970278;28;20023;-57
2022/08/18 00:12:26;;;;;;;19.27;14.13;;;16.30;99.90;;;;;;4969609;28;20114;-57
2022/08/18 00:14:52;;;;;;;16.23;12.23;;;16.30;99.90;;;;;;4970337;28;20045;-57
2022/08/18 00:17:18;;;;;;;19.05;11.60;;;16.40;99.90;;;;;;4966643;28;20130;-57
2022/08/18 00:19:46;;;;;;;15.60;10.95;;;16.40;99.90;;;;;;4970587;28;20513;-57
2022/08/18 00:22:16;;;;;;;18.77;12.77;;;16.40;99.90;;;;;;4971078;28;20031;-58
2022/08/18 00:24:46;;;;;;;18.00;12.63;;;16.40;99.90;;;;;;4969067;28;20059;-56
2022/08/18 00:27:12;;;;;;;18.55;12.75;;;16.50;99.90;;;;;;4968982;28;20113;-56
2022/08/18 00:29:37;;;;;;;17.80;12.95;;;16.50;99.90;;;;;;4969111;28;20070;-56
2022/08/18 00:32:25;;;;;;;26.55;17.58;;;16.50;99.90;;;;;;4969049;28;20122;-56
2022/08/18 00:34:51;;;;;;;31.60;17.38;;;16.60;99.90;;;;;;4969505;28;20039;-57
2022/08/18 00:37:17;;;;;;;36.25;19.83;;;16.70;99.90;;;;;;4969508;28;20033;-56
2022/08/18 00:39:43;;;;;;;31.92;19.70;;;16.70;99.90;;;;;;4969518;28;20047;-60
2022/08/18 00:42:22;;;;;;;30.35;18.98;;;16.80;99.90;;;;;;4972102;28;20084;-57
2022/08/18 00:44:48;;;;;;;37.75;20.20;;;16.90;99.90;;;;;;4968336;28;20031;-57
2022/08/18 00:47:13;;;;;;;32.55;19.55;;;16.90;99.90;;;;;;4972686;28;20030;-56
2022/08/18 00:49:41;;;;;;;31.92;18.70;;;16.90;99.90;;;;;;4972402;28;20474;-57
2022/08/18 00:52:09;;;;;;;30.27;18.02;;;16.90;99.90;;;;;;4972623;28;20379;-57
2022/08/18 00:54:36;;;;;;;31.55;19.05;;;16.90;99.90;;;;;;4968578;28;20034;-57
2022/08/18 00:57:05;;;;;;;30.98;18.77;;;16.90;99.90;;;;;;4968622;28;20057;-57
2022/08/18 00:59:41;;;;;;;33.13;19.40;;;16.90;99.90;;;;;;4971871;28;20469;-57
2022/08/18 01:02:11;;;;;;;35.42;18.45;;;16.90;99.90;;;;;;4972611;28;20397;-57
2022/08/18 01:04:45;;;;;;;31.90;19.05;;;16.90;99.90;;;;;;4970413;28;20466;-57
2022/08/18 01:07:35;;;;;;;28.58;17.83;;;16.90;99.90;;;;;;4972886;28;20135;-57
2022/08/18 01:10:02;;;;;;;33.55;19.27;;;16.90;99.90;;;;;;4967617;28;20035;-57
2022/08/18 01:12:28;;;;;;;31.60;18.67;;;16.70;99.90;;;;;;4969767;28;20126;-57
2022/08/18 01:14:55;;;;;;;31.27;20.08;;;16.70;99.90;;;;;;4972378;28;20118;-57
2022/08/18 01:23:10;;;;;;;34.13;19.42;;;16.50;99.90;;;;;;4972084;28;20048;-57
2022/08/18 01:28:22;;;;;;;35.33;19.67;;;16.40;99.90;;;;;;4970803;28;20077;-56
2022/08/18 01:30:50;;;;;;;35.22;21.02;;;16.30;99.90;;;;;;4973014;28;20027;-56
2022/08/18 01:33:17;;;;;;;38.17;21.50;;;16.30;99.90;;;;;;4971556;28;20126;-57
2022/08/18 01:35:48;;;;;;;41.50;20.80;;;16.30;99.90;;;;;;4962347;28;20027;-57
2022/08/18 01:38:18;;;;;;;35.17;21.10;;;16.20;99.90;;;;;;4973129;28;20038;-56
2022/08/18 01:40:45;;;;;;;38.95;21.58;;;16.20;99.90;;;;;;4969587;28;20027;-57
2022/08/18 01:43:12;;;;;;;42.25;22.65;;;16.10;99.90;;;;;;4971658;28;20402;-56
2022/08/18 01:45:39;;;;;;;38.13;22.25;;;16.10;99.90;;;;;;4970835;28;20371;-57
2022/08/18 01:48:04;;;;;;;42.78;23.73;;;16.10;99.90;;;;;;4971925;28;20041;-58
2022/08/18 01:50:33;;;;;;;39.45;21.88;;;16.00;99.90;;;;;;4970775;28;20118;-58
2022/08/18 01:52:59;;;;;;;42.85;22.00;;;16.00;99.90;;;;;;4971641;28;20141;-56
2022/08/18 01:55:27;;;;;;;42.13;22.13;;;16.00;99.90;;;;;;4970568;28;20045;-58
2022/08/18 01:57:54;;;;;;;39.90;22.13;;;15.90;99.90;;;;;;4972099;28;20474;-57
2022/08/18 02:00:20;;;;;;;50.58;25.17;;;15.90;99.90;;;;;;4970823;28;20058;-57
2022/08/18 02:02:48;;;;;;;47.08;25.05;;;16.00;99.90;;;;;;4971588;28;20030;-57
2022/08/18 02:05:23;;;;;;;45.83;24.85;;;16.00;99.90;;;;;;4972177;28;20031;-57
2022/08/18 02:07:49;;;;;;;45.83;24.88;;;16.00;99.90;;;;;;4972419;28;20026;-57
2022/08/18 02:10:16;;;;;;;44.05;22.92;;;15.90;99.90;;;;;;4972514;28;20445;-57
2022/08/18 02:12:42;;;;;;;38.20;22.08;;;15.90;99.90;;;;;;4964445;28;20393;-57
2022/08/18 02:15:09;;;;;;;42.33;23.38;;;15.80;99.90;;;;;;4971364;28;20114;-56
2022/08/18 02:17:39;;;;;;;46.70;24.17;;;15.70;99.90;;;;;;4970612;28;20038;-56
2022/08/18 02:20:07;;;;;;;51.65;24.13;;;15.70;99.90;;;;;;4966870;28;20471;-57
2022/08/18 02:22:34;;;;;;;44.25;23.50;;;15.70;99.90;;;;;;4968862;28;20022;-57
2022/08/18 02:24:59;;;;;;;48.25;23.45;;;15.60;99.90;;;;;;4971163;28;20023;-56
2022/08/18 02:27:26;;;;;;;54.58;25.25;;;15.60;99.90;;;;;;4969855;28;20038;-57
2022/08/18 02:29:52;;;;;;;54.95;24.73;;;15.50;99.90;;;;;;4970768;28;20038;-56
2022/08/18 02:32:18;;;;;;;56.97;26.38;;;15.60;99.90;;;;;;4969256;28;20141;-57
2022/08/18 02:34:44;;;;;;;53.22;25.60;;;15.50;99.90;;;;;;4971654;28;20111;-57
2022/08/18 02:37:10;;;;;;;65.70;27.67;;;15.60;99.90;;;;;;4970885;28;20054;-57
2022/08/18 02:39:36;;;;;;;57.65;26.95;;;15.70;99.90;;;;;;4970091;28;20035;-57
2022/08/18 02:42:04;;;;;;;53.97;24.67;;;15.80;99.90;;;;;;4970577;28;20026;-57
2022/08/18 02:44:30;;;;;;;55.90;26.23;;;15.90;99.90;;;;;;4969706;28;20030;-57
2022/08/18 02:46:56;;;;;;;63.03;27.05;;;16.00;99.90;;;;;;4971453;28;20031;-57
2022/08/18 02:49:22;;;;;;;58.53;27.85;;;16.00;99.90;;;;;;4969121;28;20037;-58
2022/08/18 02:51:50;;;;;;;58.33;26.83;;;16.10;99.90;;;;;;4971711;28;20085;-57
2022/08/18 02:54:17;;;;;;;57.15;27.25;;;16.10;99.90;;;;;;4971228;28;20113;-57
2022/08/18 02:56:44;;;;;;;57.67;26.75;;;16.20;99.90;;;;;;4971000;28;20394;-57
2022/08/18 02:59:13;;;;;;;67.05;29.33;;;16.20;99.90;;;;;;4969450;28;20031;-57
2022/08/18 03:01:42;;;;;;;74.97;29.92;;;16.20;99.90;;;;;;4969759;28;20034;-57
2022/08/18 03:04:11;;;;;;;69.65;29.25;;;16.30;99.90;;;;;;4971164;28;20109;-57
2022/08/18 03:06:38;;;;;;;65.68;28.90;;;16.40;99.90;;;;;;4969589;28;20034;-57
2022/08/18 03:09:08;;;;;;;66.13;28.77;;;16.40;99.90;;;;;;4970396;28;20122;-57
2022/08/18 03:11:34;;;;;;;66.38;28.63;;;16.40;99.90;;;;;;4960009;28;20061;-57
2022/08/18 03:14:00;;;;;;;58.70;27.13;;;16.50;99.90;;;;;;4970984;28;20394;-57
2022/08/18 03:16:26;;;;;;;56.80;28.50;;;16.50;99.90;;;;;;4969067;28;20049;-57
2022/08/18 03:18:52;;;;;;;67.60;28.38;;;16.50;99.90;;;;;;4969772;28;20409;-57
2022/08/18 03:21:23;;;;;;;64.82;28.27;;;16.50;99.90;;;;;;4969005;28;20099;-57
2022/08/18 03:23:51;;;;;;;64.47;28.93;;;16.50;99.90;;;;;;4971041;28;20521;-57
2022/08/18 03:26:18;;;;;;;66.40;28.48;;;16.50;99.90;;;;;;4970595;28;20073;-57
2022/08/18 03:28:47;;;;;;;56.95;28.50;;;16.60;99.90;;;;;;4969609;28;20447;-57
2022/08/18 03:31:14;;;;;;;68.57;28.17;;;16.50;99.90;;;;;;4971067;28;20089;-57
2022/08/18 03:33:41;;;;;;;68.07;29.98;;;16.50;99.90;;;;;;4969008;28;20141;-57
2022/08/18 03:36:18;;;;;;;63.97;29.10;;;16.50;99.90;;;;;;4970935;28;20096;-57
2022/08/18 03:38:45;;;;;;;62.90;28.85;;;16.50;99.90;;;;;;4970084;28;20022;-57
2022/08/18 03:41:13;;;;;;;63.85;28.23;;;16.50;99.90;;;;;;4967511;28;20031;-57
2022/08/18 03:43:39;;;;;;;54.88;28.58;;;16.50;99.90;;;;;;4969202;28;20117;-58
2022/08/18 03:46:11;;;;;;;52.17;26.48;;;16.40;99.90;;;;;;4970964;28;20546;-57
2022/08/18 03:48:39;;;;;;;54.20;25.75;;;16.40;99.90;;;;;;4968203;28;20475;-56
2022/08/18 03:51:13;;;;;;;53.03;26.17;;;16.40;99.90;;;;;;4970625;28;20042;-57
2022/08/18 03:53:39;;;;;;;61.33;26.85;;;16.40;99.90;;;;;;4969242;28;20054;-57
2022/08/18 03:56:14;;;;;;;54.30;26.23;;;16.40;99.90;;;;;;4957232;28;20027;-57
2022/08/18 03:58:44;;;;;;;51.13;23.77;;;16.40;99.90;;;;;;4961225;28;20047;-58
2022/08/18 04:01:12;;;;;;;54.33;25.50;;;16.30;99.90;;;;;;4970398;28;20031;-58
2022/08/18 04:03:37;;;;;;;57.15;26.70;;;16.30;99.90;;;;;;4963604;28;20126;-57
2022/08/18 04:06:03;;;;;;;52.60;26.45;;;16.30;99.90;;;;;;4965352;28;20069;-58
2022/08/18 04:08:29;;;;;;;53.55;27.05;;;16.30;99.90;;;;;;4967801;28;20397;-58
2022/08/18 04:10:55;;;;;;;58.10;26.80;;;16.30;99.90;;;;;;4968838;28;20501;-58
2022/08/18 04:13:21;;;;;;;62.20;28.48;;;16.30;99.90;;;;;;4965834;28;20038;-58
2022/08/18 04:15:46;;;;;;;60.90;27.02;;;16.30;99.90;;;;;;4973376;28;20029;-58
2022/08/18 04:18:12;;;;;;;56.47;26.63;;;16.30;99.90;;;;;;4975877;28;20027;-58
2022/08/18 04:20:39;;;;;;;51.15;25.08;;;16.30;99.90;;;;;;4972983;28;20134;-60
2022/08/18 04:23:04;;;;;;;51.22;24.98;;;16.20;99.90;;;;;;4974826;28;20027;-58
2022/08/18 04:25:31;;;;;;;46.90;24.35;;;16.20;99.90;;;;;;4972351;28;20026;-58
2022/08/18 04:28:00;;;;;;;42.60;22.92;;;16.20;99.90;;;;;;4965850;28;20090;-57
2022/08/18 04:30:27;;;;;;;50.78;23.30;;;16.20;99.90;;;;;;4965569;28;20402;-57
2022/08/18 04:32:53;;;;;;;48.10;24.15;;;16.20;99.90;;;;;;4973792;28;20055;-57
2022/08/18 04:35:19;;;;;;;50.97;24.27;;;16.20;99.90;;;;;;4970983;28;20049;-57
2022/08/18 04:37:45;;;;;;;45.88;23.95;;;16.20;99.90;;;;;;4972526;28;20034;-57
2022/08/18 04:40:13;;;;;;;55.72;25.77;;;16.30;99.90;;;;;;4970110;28;20023;-58
2022/08/18 04:42:38;;;;;;;57.53;26.98;;;16.30;99.90;;;;;;4970649;28;20122;-57
2022/08/18 04:45:06;;;;;;;58.78;28.33;;;16.50;99.90;;;;;;4970014;28;20113;-57
2022/08/18 04:47:31;;;;;;;58.13;27.75;;;16.60;99.90;;;;;;4972473;28;20082;-57
2022/08/18 04:49:57;;;;;;;54.85;28.40;;;16.60;99.90;;;;;;4972891;28;20488;-57
2022/08/18 04:55:07;;;;;;;56.25;27.55;;;16.70;99.90;;;;;;4973101;28;20150;-57
2022/08/18 04:57:33;;;;;;;48.00;25.13;;;16.70;99.90;;;;;;4970978;28;20031;-57
2022/08/18 04:59:58;;;;;;;50.25;26.73;;;16.70;99.90;;;;;;4970377;28;20038;-58
2022/08/18 05:02:24;;;;;;;55.75;26.63;;;16.70;99.90;;;;;;4971246;28;20440;-57
2022/08/18 05:04:50;;;;;;;56.30;26.35;;;16.70;99.90;;;;;;4968306;28;20034;-56
2022/08/18 05:07:19;;;;;;;51.28;25.40;;;16.80;99.90;;;;;;4973282;28;20474;-58
2022/08/18 05:09:45;;;;;;;49.63;25.30;;;16.90;99.90;;;;;;4972670;28;20486;-57
2022/08/18 05:12:13;;;;;;;52.13;25.45;;;16.90;99.90;;;;;;4972776;28;20043;-57
2022/08/18 05:14:40;;;;;;;48.40;27.08;;;16.90;99.90;;;;;;4969947;28;20034;-57
2022/08/18 05:17:06;;;;;;;52.22;26.13;;;16.90;99.90;;;;;;4977573;28;20063;-57
2022/08/18 05:19:34;;;;;;;53.08;25.75;;;16.90;99.90;;;;;;4975225;28;20058;-57
2022/08/18 05:22:01;;;;;;;46.63;24.90;;;17.00;99.90;;;;;;4972537;28;20026;-58
2022/08/18 05:24:29;;;;;;;54.10;24.58;;;17.10;99.90;;;;;;4974435;28;20065;-56
2022/08/18 05:26:55;;;;;;;47.22;23.75;;;17.20;99.90;;;;;;4975075;28;20031;-56
2022/08/18 05:29:21;;;;;;;51.70;25.13;;;17.30;99.90;;;;;;4977892;28;20030;-57
2022/08/18 05:31:50;;;;;;;57.72;26.58;;;17.30;99.90;;;;;;4973599;28;20520;-56
2022/08/18 05:34:20;;;;;;;49.65;25.92;;;17.40;99.90;;;;;;4966565;28;20097;-57
2022/08/18 05:36:56;;;;;;;42.10;25.02;;;17.40;99.90;;;;;;4978961;28;20501;-56
2022/08/18 05:39:28;;;;;;;45.00;23.73;;;17.50;99.90;;;;;;4968224;28;20058;-56
2022/08/18 05:42:03;;;;;;;48.05;23.55;;;17.60;99.90;;;;;;4971396;28;20035;-57
2022/08/18 05:44:35;;;;;;;42.67;23.58;;;17.60;99.90;;;;;;4972203;28;20023;-56
2022/08/18 05:47:05;;;;;;;44.05;23.88;;;17.70;99.90;;;;;;4983203;28;20128;-56
2022/08/18 05:49:34;;;;;;;48.40;25.80;;;17.70;99.90;;;;;;4969775;28;20115;-57
2022/08/18 05:52:07;;;;;;;43.47;24.00;;;17.80;99.90;;;;;;4970510;28;20059;-57
2022/08/18 05:57:36;;;;;;;36.90;20.58;;;17.90;99.90;;;;;;4971281;28;20509;-57
2022/08/18 06:00:05;;;;;;;37.47;21.38;;;17.90;99.90;;;;;;4970515;28;20096;-57
2022/08/18 06:02:33;;;;;;;36.40;21.85;;;17.90;99.90;;;;;;4968337;28;20467;-57
2022/08/18 06:05:15;;;;;;;36.25;21.27;;;18.00;99.90;;;;;;4967158;28;20551;-57
2022/08/18 06:07:45;;;;;;;37.30;22.15;;;18.00;99.90;;;;;;4968838;28;20034;-56
2022/08/18 06:10:12;;;;;;;38.25;20.98;;;18.10;99.90;;;;;;4981515;28;20039;-57
2022/08/18 06:12:50;;;;;;;34.92;21.40;;;18.10;99.90;;;;;;4969603;28;20039;-59
2022/08/18 06:15:16;;;;;;;33.08;21.42;;;18.10;99.90;;;;;;4972006;28;20048;-57
2022/08/18 06:17:58;;;;;;;39.78;21.30;;;18.10;99.90;;;;;;4969121;28;20039;-57
2022/08/18 06:20:48;;;;;;;29.85;18.58;;;18.20;99.90;;;;;;4969049;28;20470;-58
2022/08/18 06:23:35;;;;;;;31.00;20.20;;;18.30;99.90;;;;;;4967608;28;20027;-58
2022/08/18 06:26:10;;;;;;;34.70;20.02;;;18.40;99.90;;;;;;4964067;28;20037;-59
2022/08/18 06:28:57;;;;;;;25.63;18.60;;;18.50;99.90;;;;;;4969034;28;20475;-58
2022/08/18 06:31:40;;;;;;;27.08;18.65;;;18.70;99.90;;;;;;4963527;28;20038;-58
2022/08/18 06:34:30;;;;;;;28.38;19.60;;;18.80;99.90;;;;;;4968993;28;20509;-58
2022/08/18 06:37:09;;;;;;;31.85;18.58;;;18.90;99.90;;;;;;4970137;28;20447;-58
2022/08/18 06:39:44;;;;;;;31.98;19.70;;;18.90;99.90;;;;;;4968944;28;20093;-57
2022/08/18 06:42:10;;;;;;;30.67;18.30;;;18.90;99.90;;;;;;4966298;28;20027;-57
2022/08/18 06:44:50;;;;;;;30.52;19.95;;;18.80;99.90;;;;;;4968525;28;20062;-57
2022/08/18 06:47:51;;;;;;;33.03;19.23;;;18.70;99.90;;;;;;4970745;28;20255;-59
2022/08/18 06:50:46;;;;;;;30.92;18.48;;;18.70;99.90;;;;;;4963118;28;20061;-58
2022/08/18 06:53:12;;;;;;;25.08;17.45;;;18.80;99.90;;;;;;4957496;28;20043;-58
2022/08/18 06:55:41;;;;;;;26.00;18.48;;;18.80;99.90;;;;;;4967150;28;20019;-58
2022/08/18 06:58:18;;;;;;;26.33;17.90;;;18.80;99.90;;;;;;4965613;28;20050;-57
2022/08/18 07:00:50;;;;;;;31.10;19.27;;;18.80;99.90;;;;;;4966851;28;20074;-58
2022/08/18 07:03:20;;;;;;;27.38;18.48;;;18.80;99.90;;;;;;4965248;28;20499;-57
2022/08/18 07:06:09;;;;;;;26.27;18.05;;;18.90;99.90;;;;;;4967096;28;20053;-57
2022/08/18 07:08:42;;;;;;;27.60;18.88;;;19.00;99.90;;;;;;4967334;28;20023;-58
2022/08/18 07:11:16;;;;;;;31.30;20.05;;;19.10;99.90;;;;;;4967986;28;20030;-57
2022/08/18 07:13:44;;;;;;;29.58;18.85;;;19.10;99.90;;;;;;4968062;28;20486;-57
2022/08/18 07:16:27;;;;;;;27.73;19.25;;;19.10;99.90;;;;;;4969451;28;20031;-56
2022/08/18 07:18:53;;;;;;;30.88;18.88;;;19.10;99.90;;;;;;4965240;28;20084;-57
2022/08/18 07:21:28;;;;;;;28.85;19.52;;;19.10;99.90;;;;;;4973121;28;20034;-57
2022/08/18 07:24:00;;;;;;;30.50;20.35;;;19.10;99.90;;;;;;4964176;28;20093;-57
2022/08/18 07:26:26;;;;;;;26.13;18.85;;;19.10;99.90;;;;;;4965387;28;20034;-57
2022/08/18 07:28:52;;;;;;;29.00;20.10;;;19.20;99.90;;;;;;4967200;28;20023;-57
2022/08/18 07:31:26;;;;;;;29.80;20.52;;;19.30;99.90;;;;;;4967561;28;20109;-58
2022/08/18 07:34:27;;;;;;;27.40;19.90;;;19.50;99.90;;;;;;4970409;28;20050;-57
2022/08/18 07:37:01;;;;;;;26.20;19.00;;;19.50;99.90;;;;;;4961315;28;20043;-58
2022/08/18 07:39:53;;;;;;;27.40;19.45;;;19.60;99.90;;;;;;4968669;28;20027;-57
2022/08/18 07:42:34;;;;;;;29.27;19.40;;;19.80;99.90;;;;;;4922402;29;20035;-57
2022/08/18 07:45:05;;;;;;;24.55;18.88;;;20.00;99.90;;;;;;4930093;29;20383;-57
2022/08/18 07:47:33;;;;;;;30.38;20.17;;;20.00;99.90;;;;;;4920661;29;20067;-57
2022/08/18 07:50:02;;;;;;;30.70;20.38;;;20.00;99.90;;;;;;4922368;29;20071;-56
2022/08/18 07:52:37;;;;;;;27.48;19.20;;;20.00;99.90;;;;;;4923614;29;20043;-58
2022/08/18 07:55:08;;;;;;;23.75;18.90;;;20.00;99.90;;;;;;4928185;29;20420;-58
2022/08/18 07:57:39;;;;;;;28.85;19.70;;;20.00;99.90;;;;;;4927355;29;20141;-57
2022/08/18 08:00:18;;;;;;;24.95;17.13;;;20.20;99.90;;;;;;4929083;29;20040;-58
2022/08/18 08:03:10;;;;;;;23.67;18.48;;;20.40;99.90;;;;;;4924261;29;20032;-58
2022/08/18 08:06:19;;;;;;;25.05;18.88;;;20.60;99.90;;;;;;4922786;29;20036;-58
2022/08/18 08:09:09;;;;;;;26.48;18.30;;;20.80;99.90;;;;;;4913681;28;20027;-58
2022/08/18 08:11:43;;;;;;;24.08;18.13;;;20.90;99.90;;;;;;4927731;28;20391;-58
2022/08/18 08:14:42;;;;;;;22.08;18.23;;;20.90;99.90;;;;;;4932801;28;20052;-58
2022/08/18 08:17:31;;;;;;;29.75;20.55;;;21.00;99.90;;;;;;4836462;29;20081;-58
2022/08/18 08:20:07;;;;;;;26.98;18.25;;;21.00;99.90;;;;;;4855669;29;20174;-56
2022/08/18 08:22:43;;;;;;;28.25;18.85;;;21.00;99.90;;;;;;4870917;29;20444;-57
2022/08/18 08:25:20;;;;;;;22.08;18.15;;;21.10;99.90;;;;;;4861689;29;20106;-57
2022/08/18 08:28:20;;;;;;;24.13;17.77;;;21.00;99.90;;;;;;4853503;29;20046;-57
2022/08/18 08:31:04;;;;;;;23.52;17.15;;;20.90;99.90;;;;;;4861591;29;20040;-56
2022/08/18 08:33:44;;;;;;;22.20;17.20;;;21.00;99.90;;;;;;4867564;29;20139;-57
2022/08/18 08:36:31;;;;;;;25.23;17.50;;;21.00;99.90;;;;;;4872365;29;20489;-57
2022/08/18 08:39:04;;;;;;;26.75;18.17;;;21.20;99.90;;;;;;4865608;29;20570;-57
2022/08/18 08:41:39;;;;;;;22.38;16.85;;;21.60;99.90;;;;;;4864503;29;21909;-58
2022/08/18 08:44:24;;;;;;;22.55;15.73;;;22.10;99.90;;;;;;4860919;29;20393;-57
2022/08/18 08:47:14;;;;;;;18.65;15.32;;;22.30;99.90;;;;;;4863326;29;20153;-58
2022/08/18 08:49:47;;;;;;;20.25;15.20;;;22.80;99.90;;;;;;4859444;29;20703;-57
2022/08/18 08:52:37;;;;;;;17.13;13.60;;;22.90;99.90;;;;;;4894559;28;20167;-58
2022/08/18 08:55:26;;;;;;;15.45;12.63;;;23.00;99.90;;;;;;4966934;28;20038;-57
2022/08/18 08:58:02;;;;;;;15.90;12.25;;;22.90;99.90;;;;;;4968862;28;20038;-57
2022/08/18 09:00:28;;;;;;;18.70;13.80;;;23.10;99.90;;;;;;4970245;28;20492;-58
2022/08/18 09:03:32;;;;;;;16.50;13.65;;;23.20;99.90;;;;;;4969029;28;20037;-58
2022/08/18 09:06:25;;;;;;;18.20;11.27;;;23.30;99.90;;;;;;4969697;28;20023;-58
2022/08/18 09:09:09;;;;;;;13.98;12.05;;;23.40;99.90;;;;;;4969220;28;20039;-57
2022/08/18 09:11:53;;;;;;;14.73;11.45;;;23.30;99.90;;;;;;4968524;28;20585;-58
2022/08/18 09:14:50;;;;;;;15.55;12.75;;;23.40;99.90;;;;;;4973538;28;20117;-58
2022/08/18 09:17:32;;;;;;;16.52;13.48;;;23.30;99.90;;;;;;4971321;28;20090;-57
2022/08/18 09:20:16;;;;;;;;;;;23.60;99.90;;;;;;4966497;28;20043;-57
2022/08/18 09:22:53;;;;;;;16.67;12.82;;;23.70;99.90;;;;;;4970401;28;19925;-57
2022/08/18 09:25:37;;;;;;;17.08;13.52;;;24.00;99.90;;;;;;4966883;28;20057;-58
2022/08/18 09:28:22;;;;;;;16.15;12.50;;;24.20;99.90;;;;;;4969034;28;20486;-58
2022/08/18 09:31:05;;;;;;;15.07;13.50;;;24.10;99.90;;;;;;4966706;28;20490;-58
2022/08/18 09:33:43;;;;;;;16.08;14.02;;;24.10;99.90;;;;;;4969803;28;20097;-58
2022/08/18 09:36:34;;;;;;;15.55;13.30;;;24.30;99.90;;;;;;4974764;28;20484;-58
2022/08/18 09:42:05;;;;;;;16.88;13.02;;;24.00;99.90;;;;;;4970887;28;20049;-58
2022/08/18 09:44:40;;;;;;;19.52;13.50;;;23.70;99.90;;;;;;4965293;28;20023;-57
2022/08/18 09:47:07;;;;;;;15.82;14.13;;;23.60;99.90;;;;;;4977089;28;20052;-58
2022/08/18 09:50:01;;;;;;;16.60;13.68;;;23.40;99.90;;;;;;4978903;28;20417;-58
2022/08/18 09:52:33;;;;;;;17.95;14.23;;;23.50;99.90;;;;;;4953510;28;20053;-58
2022/08/18 09:54:58;;;;;;;14.95;13.10;;;23.70;99.90;;;;;;4972697;28;20118;-56
2022/08/18 09:57:34;;;;;;;20.30;14.18;;;23.90;99.90;;;;;;4967033;28;20117;-56
2022/08/18 10:00:03;;;;;;;18.83;14.13;;;24.20;99.90;;;;;;4976460;28;20038;-57
2022/08/18 10:02:28;;;;;;;19.02;14.65;;;24.30;99.90;;;;;;4968168;28;20378;-58
2022/08/18 10:05:19;;;;;;;16.20;14.43;;;24.40;99.90;;;;;;4966034;28;20027;-57
2022/08/18 10:08:05;;;;;;;16.33;14.40;;;24.30;99.90;;;;;;4970093;28;20379;-58
2022/08/18 10:10:59;;;;;;;17.13;13.52;;;24.00;99.90;;;;;;4968453;28;20100;-58
2022/08/18 10:13:32;;;;;;;17.05;14.60;;;24.10;99.90;;;;;;4967955;28;20031;-58
2022/08/18 10:16:54;;;;;;;17.45;14.90;;;24.10;99.90;;;;;;4971144;28;20085;-58
2022/08/18 10:19:33;;;;;;;15.05;13.25;;;24.40;99.90;;;;;;4924955;29;20518;-58
2022/08/18 10:21:58;;;;;;;19.17;15.32;;;24.60;99.90;;;;;;4926521;28;20042;-58
2022/08/18 10:25:06;;;;;;;15.63;13.77;;;24.80;99.90;;;;;;4918249;29;20039;-57
2022/08/18 10:27:53;;;;;;;16.85;15.07;;;25.10;99.90;;;;;;4880793;29;20475;-57
2022/08/18 10:30:30;;;;;;;21.35;16.50;;;25.10;99.90;;;;;;4923659;29;20075;-57
2022/08/18 10:32:56;;;;;;;25.65;18.60;;;24.80;99.90;;;;;;4931906;29;20138;-57
2022/08/18 10:35:34;;;;;;;22.15;17.35;;;24.20;99.90;;;;;;4920476;29;20031;-58
2022/08/18 10:38:05;;;;;;;22.27;17.50;;;23.80;99.90;;;;;;4920194;28;20040;-57
2022/08/18 10:40:32;;;;;;;25.77;19.60;;;23.80;99.90;;;;;;4917151;29;20024;-57
2022/08/18 10:42:57;;;;;;;19.75;17.00;;;24.10;99.90;;;;;;4922978;28;20079;-57
2022/08/18 10:45:34;;;;;;;20.10;17.58;;;24.10;99.90;;;;;;4920459;29;20036;-57
2022/08/18 10:48:09;;;;;;;19.10;16.85;;;24.20;99.90;;;;;;4917547;29;20110;-57
2022/08/18 10:50:47;;;;;;;20.65;17.20;;;24.20;99.90;;;;;;4951691;28;20126;-57
2022/08/18 10:53:53;;;;;;;22.08;17.52;;;24.40;99.90;;;;;;4971992;28;20522;-57
2022/08/18 10:56:25;;;;;;;18.67;16.52;;;24.40;99.90;;;;;;4930207;28;20039;-58
2022/08/18 10:59:25;;;;;;;19.52;16.00;;;24.40;99.90;;;;;;4934603;28;20515;-57
2022/08/18 11:01:51;;;;;;;17.45;14.65;;;24.70;99.90;;;;;;4862720;29;20041;-56
2022/08/18 11:04:35;;;;;;;17.02;14.07;;;25.20;99.90;;;;;;4857944;29;20041;-57
2022/08/18 11:07:21;;;;;;;19.20;14.60;;;25.30;99.90;;;;;;4858563;29;20041;-57
2022/08/18 11:09:49;;;;;;;15.98;13.73;;;25.50;99.90;;;;;;4858722;29;20025;-58
2022/08/18 11:13:04;;;;;;;18.27;15.45;;;25.70;99.90;;;;;;4859400;29;20105;-57
2022/08/18 11:15:51;;;;;;;18.17;15.48;;;25.80;99.90;;;;;;4855229;29;20029;-58
2022/08/18 11:18:27;;;;;;;18.88;16.90;;;26.10;99.90;;;;;;4854667;29;20056;-58
2022/08/18 11:21:13;;;;;;;23.05;16.67;;;26.00;99.90;;;;;;4855739;29;20155;-58
2022/08/18 11:23:39;;;;;;;17.90;16.02;;;25.80;99.90;;;;;;4853025;29;20887;-57
2022/08/18 11:26:15;;;;;;;22.35;18.35;;;25.80;99.90;;;;;;4860484;29;20044;-60
2022/08/18 11:28:41;;;;;;;20.42;18.23;;;25.20;99.90;;;;;;4892433;29;20737;-57
2022/08/18 11:31:07;;;;;;;23.33;18.20;;;24.70;99.90;;;;;;4891959;29;20040;-57
2022/08/18 11:33:33;;;;;;;22.80;17.83;;;24.80;99.90;;;;;;4894345;29;20048;-58
2022/08/18 11:35:59;;;;;;;21.45;16.85;;;25.00;99.90;;;;;;4894379;29;20052;-58
2022/08/18 11:38:27;;;;;;;18.23;15.48;;;25.20;99.90;;;;;;4958613;28;20041;-58
2022/08/18 11:41:17;;;;;;;19.20;16.45;;;25.70;99.90;;;;;;4968199;28;20482;-58
2022/08/18 11:43:43;;;;;;;17.58;15.75;;;25.90;99.90;;;;;;4966484;28;20485;-58
2022/08/18 11:46:32;;;;;;;20.92;16.83;;;26.40;99.90;;;;;;4969979;28;20503;-58
2022/08/18 11:49:00;;;;;;;19.73;16.83;;;26.60;99.90;;;;;;4968677;28;20027;-58
2022/08/18 11:51:29;;;;;;;18.33;16.30;;;26.20;99.90;;;;;;4968658;28;20042;-58
2022/08/18 11:54:20;;;;;;;17.05;14.75;;;26.60;99.90;;;;;;4974225;28;20045;-58
2022/08/18 11:56:46;;;;;;;19.35;16.00;;;27.10;99.90;;;;;;4960639;28;20042;-58
2022/08/18 11:59:24;;;;;;;18.02;15.45;;;27.00;99.90;;;;;;4968454;28;20110;-58
2022/08/18 12:01:56;;;;;;;16.80;15.10;;;27.30;99.90;;;;;;4971218;28;20031;-57
2022/08/18 12:04:24;;;;;;;;;;;27.40;99.90;;;;;;4967628;28;20450;-58
2022/08/18 12:06:55;;;;;;;17.13;14.25;;;27.10;99.90;;;;;;4970239;28;19988;-58
2022/08/18 12:09:42;;;;;;;14.32;12.73;;;27.10;99.90;;;;;;4968662;28;20118;-59
2022/08/18 12:12:21;;;;;;;14.52;12.98;;;27.20;99.90;;;;;;4969749;28;20034;-58
2022/08/18 12:15:12;;;;;;;13.82;12.25;;;27.30;99.90;;;;;;4972767;28;20034;-58
2022/08/18 12:17:39;;;;;;;14.13;12.52;;;27.70;99.90;;;;;;4962397;28;20041;-58
2022/08/18 12:20:09;;;;;;;17.63;14.38;;;27.70;99.90;;;;;;4969542;28;20030;-57
2022/08/18 12:22:37;;;;;;;14.25;12.45;;;28.00;99.90;;;;;;4968823;28;20650;-59
2022/08/18 12:25:05;;;;;;;16.40;12.98;;;28.10;99.90;;;;;;4970797;28;20034;-59
2022/08/18 12:27:31;;;;;;;17.60;14.10;;;27.90;99.90;;;;;;4969430;28;20027;-59
2022/08/18 12:29:57;;;;;;;18.05;15.30;;;27.80;99.90;;;;;;4968250;28;20584;-58
2022/08/18 12:32:25;;;;;;;14.15;11.98;;;27.70;99.90;;;;;;4971170;28;20133;-59
2022/08/18 12:34:51;;;;;;;12.43;11.13;;;27.90;99.90;;;;;;4972096;28;20489;-58
2022/08/18 12:37:20;;;;;;;15.15;10.93;;;27.90;99.90;;;;;;4972523;28;20530;-59
2022/08/18 12:39:46;;;;;;;16.70;13.75;;;28.20;99.90;;;;;;4978365;28;20027;-58
2022/08/18 12:42:12;;;;;;;15.45;13.73;;;28.40;99.90;;;;;;4973306;28;20031;-57
2022/08/18 12:44:40;;;;;;;16.38;13.43;;;28.40;99.90;;;;;;4973837;28;20027;-58
2022/08/18 12:47:11;;;;;;;16.45;12.98;;;28.80;99.90;;;;;;4970956;28;20121;-58
2022/08/18 12:49:37;;;;;;;12.80;11.60;;;28.80;99.90;;;;;;4970831;28;20038;-58
2022/08/18 12:52:03;;;;;;;13.57;11.38;;;28.60;99.90;;;;;;4977466;28;20031;-57
2022/08/18 12:54:31;;;;;;;13.52;12.10;;;27.70;99.90;;;;;;4970790;28;20031;-58
2022/08/18 12:56:57;;;;;;;17.45;12.05;;;27.40;99.90;;;;;;4973381;28;20031;-58
2022/08/18 12:59:25;;;;;;;12.77;11.15;;;26.80;99.90;;;;;;4968259;28;20122;-57
2022/08/18 13:01:51;;;;;;;11.52;10.23;;;27.20;99.90;;;;;;4976410;28;20045;-58
2022/08/18 13:04:17;;;;;;;13.88;10.85;;;27.20;99.90;;;;;;4970744;28;20030;-58
2022/08/18 13:06:48;;;;;;;12.75;10.40;;;27.30;99.90;;;;;;4967571;28;20084;-58
2022/08/18 13:09:15;;;;;;;10.82;9.70;;;27.50;99.90;;;;;;4973476;28;20065;-57
2022/08/18 13:11:41;;;;;;;12.95;9.52;;;27.70;99.90;;;;;;4966931;28;20454;-57
2022/08/18 13:14:07;;;;;;;11.82;9.82;;;27.80;99.90;;;;;;4972761;28;20043;-57
2022/08/18 13:16:35;;;;;;;11.25;9.85;;;27.90;99.90;;;;;;4968593;28;20114;-58